sensor_id;sensor_type;location;lat;lon;timestamp;pressure;altitude;pressure_sealevel;temperature;humidity
55077;BME280;40971;44.702;11.030;2023-12-07T00:01:03;101601.03;;;-0.76;100.00
55077;BME280;40971;44.702;11.030;2023-12-07T00:11:05;101586.31;;;-0.93;100.00
55077;BME280;40971;44.702;11.030;2023-12-07T00:21:08;101576.66;;;-0.89;100.00
55077;BME280;40971;44.702;11.030;2023-12-07T00:31:10;101571.31;;;-0.85;100.00
55077;BME280;40971;44.702;11.030;2023-12-07T00:41:12;101581.91;;;-0.91;100.00
55077;BME280;40971;44.702;11.030;2023-12-07T00:51:14;101589.16;;;-0.80;100.00
55077;BME280;40971;44.702;11.030;2023-12-07T01:01:16;101607.78;;;-0.74;100.00
55077;BME280;40971;44.702;11.030;2023-12-07T01:11:16;101635.47;;;-0.96;100.00
55077;BME280;40971;44.702;11.030;2023-12-07T01:21:17;101639.34;;;-1.06;100.00
55077;BME280;40971;44.702;11.030;2023-12-07T01:31:17;101658.31;;;-1.47;100.00
55077;BME280;40971;44.702;11.030;2023-12-07T01:41:22;101663.66;;;-1.11;100.00
55077;BME280;40971;44.702;11.030;2023-12-07T01:51:22;101657.03;;;-1.17;100.00
55077;BME280;40971;44.702;11.030;2023-12-07T02:01:27;101669.53;;;-1.08;100.00
55077;BME280;40971;44.702;11.030;2023-12-07T02:11:28;101669.91;;;-0.97;100.00
55077;BME280;40971;44.702;11.030;2023-12-07T02:21:38;101682.47;;;-0.89;100.00
55077;BME280;40971;44.702;11.030;2023-12-07T02:31:42;101661.59;;;-0.65;100.00
55077;BME280;40971;44.702;11.030;2023-12-07T02:41:48;101643.09;;;-0.55;100.00
55077;BME280;40971;44.702;11.030;2023-12-07T02:51:50;101658.19;;;-0.46;100.00
55077;BME280;40971;44.702;11.030;2023-12-07T03:01:51;101675.22;;;-0.42;100.00
55077;BME280;40971;44.702;11.030;2023-12-07T03:11:53;101672.13;;;-0.13;100.00
55077;BME280;40971;44.702;11.030;2023-12-07T03:21:56;101681.38;;;-0.45;100.00
55077;BME280;40971;44.702;11.030;2023-12-07T03:31:57;101694.81;;;-0.57;100.00
55077;BME280;40971;44.702;11.030;2023-12-07T03:41:59;101692.50;;;-0.44;100.00
55077;BME280;40971;44.702;11.030;2023-12-07T03:52:04;101703.94;;;-0.50;100.00
55077;BME280;40971;44.702;11.030;2023-12-07T04:02:06;101714.41;;;-0.53;100.00
55077;BME280;40971;44.702;11.030;2023-12-07T04:12:08;101722.59;;;-0.62;100.00
55077;BME280;40971;44.702;11.030;2023-12-07T04:22:09;101734.41;;;-0.77;100.00
55077;BME280;40971;44.702;11.030;2023-12-07T04:32:12;101738.47;;;-0.91;100.00
55077;BME280;40971;44.702;11.030;2023-12-07T04:42:14;101750.34;;;-1.07;100.00
55077;BME280;40971;44.702;11.030;2023-12-07T04:52:15;101756.06;;;-0.61;100.00
55077;BME280;40971;44.702;11.030;2023-12-07T05:02:17;101766.28;;;-0.57;100.00
55077;BME280;40971;44.702;11.030;2023-12-07T05:12:19;101765.13;;;-0.32;100.00
55077;BME280;40971;44.702;11.030;2023-12-07T05:22:20;101775.63;;;-0.16;100.00
55077;BME280;40971;44.702;11.030;2023-12-07T05:32:26;101776.53;;;0.20;100.00
55077;BME280;40971;44.702;11.030;2023-12-07T05:42:28;101783.16;;;0.07;100.00
55077;BME280;40971;44.702;11.030;2023-12-07T05:52:31;101784.91;;;-0.12;100.00
55077;BME280;40971;44.702;11.030;2023-12-07T06:02:35;101781.63;;;-0.16;100.00
55077;BME280;40971;44.702;11.030;2023-12-07T06:12:37;101788.41;;;-0.13;100.00
55077;BME280;40971;44.702;11.030;2023-12-07T06:22:38;101810.03;;;-0.75;100.00
55077;BME280;40971;44.702;11.030;2023-12-07T06:32:40;101812.94;;;-0.82;100.00
55077;BME280;40971;44.702;11.030;2023-12-07T06:42:41;101824.69;;;-0.75;100.00
55077;BME280;40971;44.702;11.030;2023-12-07T06:52:42;101838.09;;;-1.29;100.00
55077;BME280;40971;44.702;11.030;2023-12-07T07:02:46;101846.72;;;-1.30;100.00
55077;BME280;40971;44.702;11.030;2023-12-07T07:12:49;101861.50;;;-1.12;100.00
55077;BME280;40971;44.702;11.030;2023-12-07T07:22:51;101869.53;;;-0.78;100.00
55077;BME280;40971;44.702;11.030;2023-12-07T07:32:53;101877.31;;;-0.17;100.00
55077;BME280;40971;44.702;11.030;2023-12-07T07:42:56;101883.44;;;0.19;100.00
55077;BME280;40971;44.702;11.030;2023-12-07T07:52:57;101885.94;;;0.77;98.54
55077;BME280;40971;44.702;11.030;2023-12-07T08:02:58;101885.72;;;1.51;96.43
55077;BME280;40971;44.702;11.030;2023-12-07T08:12:59;101900.47;;;2.01;94.27
55077;BME280;40971;44.702;11.030;2023-12-07T08:23:01;101919.00;;;2.74;92.63
55077;BME280;40971;44.702;11.030;2023-12-07T08:33:02;101905.91;;;3.07;91.73
55077;BME280;40971;44.702;11.030;2023-12-07T08:43:04;101923.06;;;3.55;90.25
55077;BME280;40971;44.702;11.030;2023-12-07T08:53:06;101925.16;;;3.78;88.13
55077;BME280;40971;44.702;11.030;2023-12-07T09:03:08;101941.84;;;3.60;88.31
55077;BME280;40971;44.702;11.030;2023-12-07T09:13:09;101940.41;;;3.54;90.69
55077;BME280;40971;44.702;11.030;2023-12-07T09:23:13;101962.59;;;3.76;91.82
55077;BME280;40971;44.702;11.030;2023-12-07T09:33:18;101945.25;;;3.90;90.24
55077;BME280;40971;44.702;11.030;2023-12-07T09:43:20;101954.38;;;4.11;87.80
55077;BME280;40971;44.702;11.030;2023-12-07T09:53:22;101961.13;;;4.44;88.73
55077;BME280;40971;44.702;11.030;2023-12-07T10:03:26;101962.75;;;4.59;84.34
55077;BME280;40971;44.702;11.030;2023-12-07T10:13:30;101960.13;;;4.87;85.75
55077;BME280;40971;44.702;11.030;2023-12-07T10:23:32;101942.88;;;4.99;87.73
55077;BME280;40971;44.702;11.030;2023-12-07T10:33:33;101928.59;;;5.18;87.56
55077;BME280;40971;44.702;11.030;2023-12-07T10:43:37;101927.50;;;5.48;87.14
55077;BME280;40971;44.702;11.030;2023-12-07T10:53:44;101917.31;;;5.70;85.03
55077;BME280;40971;44.702;11.030;2023-12-07T11:03:49;101910.81;;;5.90;84.67
55077;BME280;40971;44.702;11.030;2023-12-07T11:14:02;101893.78;;;6.22;85.60
55077;BME280;40971;44.702;11.030;2023-12-07T11:24:05;101872.78;;;6.23;84.36
55077;BME280;40971;44.702;11.030;2023-12-07T11:34:07;101867.13;;;6.78;85.38
55077;BME280;40971;44.702;11.030;2023-12-07T11:44:17;101858.19;;;7.04;83.24
55077;BME280;40971;44.702;11.030;2023-12-07T11:54:19;101850.78;;;7.22;78.54
55077;BME280;40971;44.702;11.030;2023-12-07T12:04:21;101841.72;;;7.61;81.26
55077;BME280;40971;44.702;11.030;2023-12-07T12:14:23;101839.38;;;7.80;78.57
55077;BME280;40971;44.702;11.030;2023-12-07T12:24:27;101832.84;;;8.08;80.16
55077;BME280;40971;44.702;11.030;2023-12-07T12:34:33;101843.78;;;8.24;75.53
55077;BME280;40971;44.702;11.030;2023-12-07T12:44:35;101829.44;;;8.72;76.31
55077;BME280;40971;44.702;11.030;2023-12-07T12:54:36;101821.19;;;9.09;71.35
55077;BME280;40971;44.702;11.030;2023-12-07T13:04:38;101828.00;;;9.32;71.84
55077;BME280;40971;44.702;11.030;2023-12-07T13:14:39;101840.72;;;9.57;71.23
55077;BME280;40971;44.702;11.030;2023-12-07T13:24:42;101858.38;;;9.76;70.41
55077;BME280;40971;44.702;11.030;2023-12-07T13:34:43;101847.38;;;9.61;69.18
55077;BME280;40971;44.702;11.030;2023-12-07T13:44:45;101863.94;;;9.82;70.08
55077;BME280;40971;44.702;11.030;2023-12-07T13:54:49;101855.75;;;9.55;70.85
55077;BME280;40971;44.702;11.030;2023-12-07T14:04:53;101857.59;;;9.23;71.31
55077;BME280;40971;44.702;11.030;2023-12-07T14:14:54;101872.91;;;9.18;74.50
55077;BME280;40971;44.702;11.030;2023-12-07T14:24:57;101872.53;;;9.43;72.67
55077;BME280;40971;44.702;11.030;2023-12-07T14:35:01;101885.19;;;9.38;72.73
55077;BME280;40971;44.702;11.030;2023-12-07T14:45:03;101905.22;;;8.75;73.67
55077;BME280;40971;44.702;11.030;2023-12-07T14:55:06;101906.81;;;7.77;77.95
55077;BME280;40971;44.702;11.030;2023-12-07T15:05:08;101913.22;;;7.27;79.67
55077;BME280;40971;44.702;11.030;2023-12-07T15:15:11;101923.50;;;6.57;82.42
55077;BME280;40971;44.702;11.030;2023-12-07T15:25:12;101926.59;;;6.13;84.28
55077;BME280;40971;44.702;11.030;2023-12-07T15:35:13;101927.53;;;6.00;85.66
55077;BME280;40971;44.702;11.030;2023-12-07T15:45:16;101917.00;;;5.62;87.73
55077;BME280;40971;44.702;11.030;2023-12-07T15:55:18;101902.78;;;5.41;87.49
55077;BME280;40971;44.702;11.030;2023-12-07T16:05:21;101892.50;;;4.31;88.82
55077;BME280;40971;44.702;11.030;2023-12-07T16:15:23;101893.22;;;4.47;93.21
55077;BME280;40971;44.702;11.030;2023-12-07T16:25:24;101885.16;;;3.21;92.90
55077;BME280;40971;44.702;11.030;2023-12-07T16:35:26;101891.22;;;3.51;97.44
55077;BME280;40971;44.702;11.030;2023-12-07T16:45:29;101924.16;;;3.81;98.21
55077;BME280;40971;44.702;11.030;2023-12-07T16:55:31;101935.53;;;3.34;96.93
55077;BME280;40971;44.702;11.030;2023-12-07T17:05:34;101944.28;;;3.18;99.17
55077;BME280;40971;44.702;11.030;2023-12-07T17:15:37;101952.06;;;3.02;99.88
55077;BME280;40971;44.702;11.030;2023-12-07T17:25:39;101969.59;;;2.67;100.00
55077;BME280;40971;44.702;11.030;2023-12-07T17:35:40;101977.28;;;2.69;100.00
55077;BME280;40971;44.702;11.030;2023-12-07T17:45:42;101977.13;;;2.72;100.00
55077;BME280;40971;44.702;11.030;2023-12-07T17:55:47;101970.16;;;2.07;100.00
55077;BME280;40971;44.702;11.030;2023-12-07T18:05:51;101969.56;;;1.85;100.00
55077;BME280;40971;44.702;11.030;2023-12-07T18:15:53;101967.69;;;0.99;100.00
55077;BME280;40971;44.702;11.030;2023-12-07T18:25:55;102001.72;;;0.92;100.00
55077;BME280;40971;44.702;11.030;2023-12-07T18:35:56;102016.44;;;0.52;100.00
55077;BME280;40971;44.702;11.030;2023-12-07T18:46:00;102015.44;;;0.94;100.00
55077;BME280;40971;44.702;11.030;2023-12-07T18:56:07;102035.06;;;0.79;100.00
55077;BME280;40971;44.702;11.030;2023-12-07T19:06:09;102033.38;;;0.78;100.00
55077;BME280;40971;44.702;11.030;2023-12-07T19:16:11;102030.78;;;0.78;100.00
55077;BME280;40971;44.702;11.030;2023-12-07T19:26:15;102024.56;;;0.64;100.00
55077;BME280;40971;44.702;11.030;2023-12-07T19:36:16;102026.72;;;0.34;100.00
55077;BME280;40971;44.702;11.030;2023-12-07T19:46:18;102024.72;;;0.40;100.00
55077;BME280;40971;44.702;11.030;2023-12-07T19:56:22;102032.34;;;0.43;100.00
55077;BME280;40971;44.702;11.030;2023-12-07T20:06:24;102046.50;;;0.15;100.00
55077;BME280;40971;44.702;11.030;2023-12-07T20:16:26;102063.78;;;0.34;100.00
55077;BME280;40971;44.702;11.030;2023-12-07T20:26:27;102054.47;;;0.10;100.00
55077;BME280;40971;44.702;11.030;2023-12-07T20:36:29;102067.16;;;-0.06;100.00
55077;BME280;40971;44.702;11.030;2023-12-07T20:46:31;102053.84;;;-0.17;100.00
55077;BME280;40971;44.702;11.030;2023-12-07T20:56:36;102062.69;;;-0.22;100.00
55077;BME280;40971;44.702;11.030;2023-12-07T21:06:42;102046.69;;;-0.10;100.00
55077;BME280;40971;44.702;11.030;2023-12-07T21:16:43;102028.72;;;-0.13;100.00
55077;BME280;40971;44.702;11.030;2023-12-07T21:26:45;102026.47;;;-0.64;100.00
55077;BME280;40971;44.702;11.030;2023-12-07T21:36:49;102028.19;;;-0.21;100.00
55077;BME280;40971;44.702;11.030;2023-12-07T21:46:50;102018.31;;;-0.32;100.00
55077;BME280;40971;44.702;11.030;2023-12-07T21:56:52;102019.25;;;-0.78;100.00
55077;BME280;40971;44.702;11.030;2023-12-07T22:06:53;101987.97;;;-0.92;100.00
55077;BME280;40971;44.702;11.030;2023-12-07T22:16:56;101973.19;;;-0.87;100.00
55077;BME280;40971;44.702;11.030;2023-12-07T22:26:57;101977.50;;;-0.87;100.00
55077;BME280;40971;44.702;11.030;2023-12-07T22:36:58;101982.19;;;-1.43;100.00
55077;BME280;40971;44.702;11.030;2023-12-07T22:46:59;101988.81;;;-1.59;100.00
55077;BME280;40971;44.702;11.030;2023-12-07T22:57:01;101976.00;;;-1.16;100.00
55077;BME280;40971;44.702;11.030;2023-12-07T23:07:05;101982.78;;;-1.37;100.00
55077;BME280;40971;44.702;11.030;2023-12-07T23:17:05;101970.53;;;-1.53;100.00
55077;BME280;40971;44.702;11.030;2023-12-07T23:27:09;101955.06;;;-1.30;100.00
55077;BME280;40971;44.702;11.030;2023-12-07T23:37:10;101958.19;;;-1.22;100.00
55077;BME280;40971;44.702;11.030;2023-12-07T23:47:10;101966.13;;;-1.05;100.00
55077;BME280;40971;44.702;11.030;2023-12-07T23:57:14;101946.06;;;-1.20;100.00
